Time;durP1;ratioP1;P1;durP2;ratioP2;P2;SDS_P1;SDS_P2;PMS_P1;PMS_P2;Temp;Humidity;BMP_temperature;BMP_pressure;BME280_temperature;BME280_humidity;BME280_pressure;Samples;Min_cycle;Max_cycle;Signal;HPM_P1;HPM_P2
2021/05/17 00:00:57;;;;;;;16.42;13.45;;;332.90;2329.60;;;;;;5088963;28;20107;-70
2021/05/17 00:03:24;;;;;;;18.05;14.35;;;332.90;2329.60;;;;;;5088139;28;20020;-69
2021/05/17 00:05:50;;;;;;;16.63;14.20;;;332.90;2329.60;;;;;;5089987;28;20470;-70
2021/05/17 00:08:16;;;;;;;18.00;13.75;;;332.90;2329.60;;;;;;5089900;28;20035;-73
2021/05/17 00:10:42;;;;;;;17.45;14.32;;;332.90;2329.60;;;;;;5090102;28;20028;-70
2021/05/17 00:13:08;;;;;;;19.95;15.57;;;332.90;2329.60;;;;;;5088201;28;20479;-70
2021/05/17 00:15:35;;;;;;;18.85;15.10;;;332.80;2329.60;;;;;;5086468;28;20024;-70
2021/05/17 00:18:01;;;;;;;15.77;14.00;;;332.80;2329.60;;;;;;5088598;28;20024;-70
2021/05/17 00:20:27;;;;;;;17.75;15.52;;;332.90;2329.60;;;;;;5087593;28;20020;-71
2021/05/17 00:22:53;;;;;;;17.67;14.98;;;332.90;2329.60;;;;;;5087315;28;20464;-70
2021/05/17 00:25:23;;;;;;;21.00;15.23;;;332.80;2329.60;;;;;;5088277;28;20445;-70
2021/05/17 00:27:50;;;;;;;19.05;16.25;;;308.10;2304.00;;;;;;5087029;28;20020;-70
2021/05/17 00:30:17;;;;;;;18.77;15.90;;;308.10;2304.00;;;;;;5089259;28;20028;-70
2021/05/17 00:32:43;;;;;;;19.95;15.73;;;308.10;2304.00;;;;;;5088769;28;20127;-70
2021/05/17 00:35:11;;;;;;;22.05;16.60;;;308.00;2304.00;;;;;;5089621;28;20024;-69
2021/05/17 00:37:37;;;;;;;19.65;16.00;;;308.00;2304.00;;;;;;5087286;28;20074;-70
2021/05/17 00:40:04;;;;;;;20.20;16.30;;;308.00;2304.00;;;;;;5085132;28;20356;-70
2021/05/17 00:42:30;;;;;;;22.00;17.00;;;307.90;2304.00;;;;;;5088049;28;20474;-72
2021/05/17 00:44:56;;;;;;;20.17;16.55;;;307.90;2304.00;;;;;;5086685;28;20025;-72
2021/05/17 00:47:24;;;;;;;19.83;16.10;;;307.90;2304.00;;;;;;5088941;28;20056;-73
2021/05/17 00:49:50;;;;;;;19.13;16.20;;;308.00;2304.00;;;;;;5088403;28;20099;-70
2021/05/17 00:52:18;;;;;;;18.67;15.77;;;308.00;2304.00;;;;;;5089792;28;20127;-72
2021/05/17 00:54:44;;;;;;;17.50;15.32;;;308.00;2304.00;;;;;;5092432;28;20031;-74
2021/05/17 00:57:10;;;;;;;17.05;15.25;;;308.10;2304.00;;;;;;5088599;28;20016;-71
2021/05/17 00:59:36;;;;;;;21.00;15.95;;;308.10;2304.00;;;;;;5091825;28;20034;-71
2021/05/17 01:02:03;;;;;;;18.90;15.35;;;308.10;2304.00;;;;;;5090343;28;20095;-71
2021/05/17 01:04:30;;;;;;;20.38;15.38;;;308.10;2304.00;;;;;;5092569;28;20501;-70
2021/05/17 01:06:58;;;;;;;20.48;15.13;;;332.80;2329.60;;;;;;5091953;28;20490;-71
2021/05/17 01:09:26;;;;;;;19.92;16.15;;;332.80;2329.60;;;;;;5093304;28;20028;-70
2021/05/17 01:11:57;;;;;;;16.80;15.00;;;332.80;2329.60;;;;;;5093061;28;20031;-73
2021/05/17 01:14:23;;;;;;;17.85;15.20;;;332.80;2329.60;;;;;;5090280;28;20016;-71
2021/05/17 01:16:50;;;;;;;17.92;14.65;;;332.80;2329.60;;;;;;5090138;28;20032;-73
2021/05/17 01:19:28;;;;;;;15.52;12.45;;;332.80;2329.60;;;;;;5089698;28;20069;-75
2021/05/17 01:22:07;;;;;;;13.27;11.80;;;308.10;2304.00;;;;;;5092178;28;20029;-71
2021/05/17 01:24:33;;;;;;;12.95;11.40;;;308.10;2304.00;;;;;;5058457;28;20029;-71
2021/05/17 01:26:59;;;;;;;13.23;11.32;;;308.10;2304.00;;;;;;5091533;28;20461;-70
2021/05/17 01:29:25;;;;;;;13.00;11.50;;;308.10;2304.00;;;;;;5090341;28;20047;-73
2021/05/17 01:31:51;;;;;;;13.43;11.82;;;308.10;2304.00;;;;;;5087105;28;20020;-71
2021/05/17 01:34:17;;;;;;;13.80;12.23;;;308.00;2304.00;;;;;;5093102;28;20027;-70
2021/05/17 01:36:45;;;;;;;14.40;11.98;;;308.10;2304.00;;;;;;5088379;28;20024;-70
2021/05/17 01:39:14;;;;;;;15.15;12.68;;;308.10;2304.00;;;;;;5074336;28;20763;-71
2021/05/17 01:41:41;;;;;;;14.80;13.18;;;308.10;2304.00;;;;;;5074281;28;20102;-73
2021/05/17 01:44:12;;;;;;;14.73;13.15;;;308.10;2304.00;;;;;;5074213;28;20027;-78
2021/05/17 01:46:38;;;;;;;;;;;332.80;2329.60;;;;;;5068499;28;20510;-79
2021/05/17 01:49:04;;;;;;;13.55;12.00;;;332.80;2329.60;;;;;;5074176;28;19908;-79
2021/05/17 01:51:30;;;;;;;16.83;13.52;;;332.80;2329.60;;;;;;5073953;28;20434;-75
2021/05/17 01:53:58;;;;;;;16.30;13.85;;;332.80;2329.60;;;;;;5074152;28;20043;-75
2021/05/17 01:56:25;;;;;;;18.10;14.55;;;332.90;2329.60;;;;;;5070486;28;20372;-74
2021/05/17 01:58:51;;;;;;;17.55;14.88;;;332.90;2329.60;;;;;;5074034;28;20056;-73
2021/05/17 02:01:19;;;;;;;18.60;15.55;;;332.90;2329.60;;;;;;5073894;28;20505;-69
2021/05/17 02:03:47;;;;;;;17.52;15.57;;;333.00;2329.60;;;;;;5073944;28;20857;-70
2021/05/17 02:06:15;;;;;;;17.42;14.48;;;333.00;2329.60;;;;;;5073326;28;20074;-70
2021/05/17 02:08:47;;;;;;;19.80;13.75;;;333.00;2329.60;;;;;;5073618;28;20036;-70
2021/05/17 02:11:15;;;;;;;12.93;11.57;;;333.00;2329.60;;;;;;5073839;28;20024;-75
2021/05/17 02:13:41;;;;;;;15.05;11.82;;;333.00;2329.60;;;;;;5073491;28;20086;-70
2021/05/17 02:16:11;;;;;;;12.35;11.05;;;333.10;2329.60;;;;;;5073989;28;20036;-73
2021/05/17 02:18:42;;;;;;;11.10;9.77;;;333.10;2329.60;;;;;;5063065;28;20479;-70
2021/05/17 02:21:10;;;;;;;11.15;9.55;;;333.00;2329.60;;;;;;5073483;28;20012;-71
2021/05/17 02:23:35;;;;;;;9.82;8.80;;;333.10;2329.60;;;;;;5073495;28;20077;-70
2021/05/17 02:26:03;;;;;;;9.88;8.88;;;333.10;2329.60;;;;;;5073398;28;20021;-70
2021/05/17 02:28:28;;;;;;;9.57;8.57;;;333.00;2329.60;;;;;;5073639;28;20024;-70
2021/05/17 02:30:54;;;;;;;10.35;8.88;;;333.10;2329.60;;;;;;5073637;28;20031;-70
2021/05/17 02:33:20;;;;;;;10.38;8.63;;;333.10;2329.60;;;;;;5073060;28;20497;-73
2021/05/17 02:35:47;;;;;;;10.70;8.57;;;333.10;2329.60;;;;;;5073193;28;20029;-70
2021/05/17 02:38:13;;;;;;;10.55;8.43;;;333.20;2329.60;;;;;;5073437;28;20029;-70
2021/05/17 02:40:40;;;;;;;10.70;8.93;;;333.20;2329.60;;;;;;5073489;28;20056;-69
2021/05/17 02:43:09;;;;;;;10.60;9.10;;;333.30;2329.60;;;;;;5073249;28;20028;-70
2021/05/17 02:45:36;;;;;;;10.35;9.23;;;333.30;2329.60;;;;;;5073263;28;20048;-71
2021/05/17 02:48:04;;;;;;;27.52;15.88;;;333.30;2329.60;;;;;;5073139;28;20025;-71
2021/05/17 02:50:39;;;;;;;12.88;10.63;;;333.10;2329.60;;;;;;5073257;28;20099;-71
2021/05/17 02:53:32;;;;;;;11.77;9.52;;;333.00;2329.60;;;;;;5072816;28;20028;-70
2021/05/17 02:56:16;;;;;;;10.63;9.35;;;333.10;2329.60;;;;;;5072828;28;20055;-71
2021/05/17 02:58:44;;;;;;;10.68;9.02;;;333.10;2329.60;;;;;;5072675;28;20032;-70
2021/05/17 03:01:11;;;;;;;9.80;8.80;;;333.10;2329.60;;;;;;5071281;28;20017;-75
2021/05/17 03:03:48;;;;;;;11.27;9.30;;;333.20;2329.60;;;;;;5073012;28;20028;-75
2021/05/17 03:06:36;;;;;;;10.10;9.02;;;333.20;2329.60;;;;;;5072936;28;20046;-75
2021/05/17 03:09:06;;;;;;;10.25;8.90;;;333.20;2329.60;;;;;;5072945;28;20036;-70
2021/05/17 03:11:35;;;;;;;12.77;9.52;;;333.10;2329.60;;;;;;5074971;28;20110;-71
2021/05/17 03:14:02;;;;;;;10.20;9.10;;;333.10;2329.60;;;;;;5080242;28;20486;-70
2021/05/17 03:16:29;;;;;;;10.48;9.18;;;333.10;2329.60;;;;;;5071182;28;20077;-69
2021/05/17 03:18:56;;;;;;;11.23;9.90;;;333.10;2329.60;;;;;;5067596;28;20086;-70
2021/05/17 03:21:26;;;;;;;12.20;10.88;;;333.00;2329.60;;;;;;5072421;28;20038;-70
2021/05/17 03:23:54;;;;;;;14.32;11.63;;;333.00;2329.60;;;;;;5072391;28;20017;-73
2021/05/17 03:26:22;;;;;;;13.07;10.82;;;332.90;2329.60;;;;;;5072342;28;20077;-73
2021/05/17 03:28:48;;;;;;;11.95;10.35;;;332.90;2329.60;;;;;;5072396;28;20028;-74
2021/05/17 03:31:14;;;;;;;11.80;9.85;;;332.90;2329.60;;;;;;5072437;28;20025;-75
2021/05/17 03:33:40;;;;;;;11.20;10.00;;;333.00;2329.60;;;;;;5072066;28;20073;-74
2021/05/17 03:36:06;;;;;;;12.27;10.00;;;333.10;2329.60;;;;;;5072242;28;20395;-73
2021/05/17 03:38:32;;;;;;;11.77;9.60;;;333.10;2329.60;;;;;;5072001;28;20548;-77
2021/05/17 03:40:57;;;;;;;10.60;9.50;;;333.20;2329.60;;;;;;5072193;28;20040;-74
2021/05/17 03:43:23;;;;;;;12.10;9.38;;;333.30;2329.60;;;;;;5072097;28;20024;-70
2021/05/17 03:45:49;;;;;;;10.93;9.07;;;333.30;2329.60;;;;;;5072039;28;20045;-74
2021/05/17 03:48:15;;;;;;;12.75;8.88;;;333.30;2329.60;;;;;;5072094;28;20115;-73
2021/05/17 03:50:41;;;;;;;10.23;8.40;;;333.40;2329.60;;;;;;5071849;28;20107;-75
2021/05/17 03:53:07;;;;;;;11.00;8.57;;;333.40;2329.60;;;;;;5076728;28;20081;-74
2021/05/17 03:55:32;;;;;;;10.07;7.50;;;333.40;2329.60;;;;;;5074502;28;20081;-71
2021/05/17 03:57:59;;;;;;;9.30;7.95;;;333.40;2329.60;;;;;;5071671;28;20087;-71
2021/05/17 04:00:30;;;;;;;10.00;7.45;;;333.50;2329.60;;;;;;5072216;28;20024;-74
2021/05/17 04:02:59;;;;;;;8.95;7.35;;;333.60;2329.60;;;;;;5071781;28;20078;-74
2021/05/17 04:13:26;;;;;;;9.15;8.25;;;358.40;2329.60;;;;;;5071983;28;20136;-79
2021/05/17 04:15:53;;;;;;;8.48;7.68;;;358.50;2329.60;;;;;;5071591;28;20497;-79
2021/05/17 04:18:20;;;;;;;10.45;7.88;;;358.40;2329.60;;;;;;5071745;28;20024;-78
2021/05/17 04:20:51;;;;;;;9.95;8.40;;;358.40;2329.60;;;;;;5071662;28;20029;-75
2021/05/17 04:23:21;;;;;;;11.32;10.13;;;333.70;2329.60;;;;;;5071827;28;20107;-70
2021/05/17 04:25:47;;;;;;;12.30;10.70;;;333.70;2329.60;;;;;;5071824;28;20479;-73
2021/05/17 04:28:13;;;;;;;12.95;10.65;;;333.70;2329.60;;;;;;5071928;28;20115;-73
2021/05/17 04:30:39;;;;;;;12.93;11.35;;;333.60;2329.60;;;;;;5075297;28;20550;-77
2021/05/17 04:33:05;;;;;;;12.45;10.93;;;333.70;2329.60;;;;;;5073901;28;20034;-75
2021/05/17 04:35:31;;;;;;;12.25;10.75;;;333.70;2329.60;;;;;;5075926;28;20029;-79
2021/05/17 04:37:56;;;;;;;13.80;10.90;;;333.70;2329.60;;;;;;5074076;28;20499;-74
2021/05/17 04:40:22;;;;;;;12.80;10.85;;;333.70;2329.60;;;;;;5075913;28;20017;-71
2021/05/17 04:42:48;;;;;;;12.43;11.10;;;358.40;2329.60;;;;;;5075744;28;20757;-75
2021/05/17 04:45:14;;;;;;;13.05;10.82;;;333.70;2329.60;;;;;;5075432;28;20085;-75
2021/05/17 04:47:40;;;;;;;13.77;11.13;;;358.40;2329.60;;;;;;5075364;28;20020;-74
2021/05/17 04:50:06;;;;;;;12.77;10.75;;;358.40;2329.60;;;;;;5075276;28;20024;-74
2021/05/17 04:52:32;;;;;;;13.55;11.10;;;358.50;2329.60;;;;;;5075211;28;20099;-73
2021/05/17 04:54:58;;;;;;;13.23;11.07;;;358.40;2329.60;;;;;;5075160;28;20111;-70
2021/05/17 04:57:24;;;;;;;13.07;11.25;;;358.40;2329.60;;;;;;5075256;28;20016;-74
2021/05/17 04:59:50;;;;;;;12.63;11.20;;;358.50;2329.60;;;;;;5075413;28;20032;-75
2021/05/17 05:02:16;;;;;;;12.88;10.55;;;358.60;2329.60;;;;;;5075495;28;20463;-75
2021/05/17 05:04:42;;;;;;;12.25;10.95;;;358.70;2329.60;;;;;;5075081;28;20021;-70
2021/05/17 05:07:08;;;;;;;13.43;10.98;;;358.90;2329.60;;;;;;5074978;28;20383;-79
2021/05/17 05:09:34;;;;;;;13.32;11.50;;;359.00;2329.60;;;;;;5073457;28;20424;-72
2021/05/17 05:12:00;;;;;;;12.10;10.45;;;358.90;2329.60;;;;;;5075379;28;20082;-76
2021/05/17 05:14:25;;;;;;;12.88;11.13;;;358.90;2329.60;;;;;;5075133;28;20020;-69
2021/05/17 05:16:51;;;;;;;14.73;11.43;;;358.90;2329.60;;;;;;5074856;28;20028;-75
2021/05/17 05:19:17;;;;;;;11.95;10.68;;;359.00;2329.60;;;;;;5074813;28;20029;-72
2021/05/17 05:21:42;;;;;;;13.50;10.98;;;359.00;2329.60;;;;;;5074763;28;20112;-78
2021/05/17 05:24:09;;;;;;;13.07;10.85;;;359.00;2329.60;;;;;;5074714;28;20024;-80
2021/05/17 05:34:08;;;;;;;11.82;9.65;;;359.30;2329.60;;;;;;5074954;28;20028;-75
2021/05/17 05:36:34;;;;;;;11.35;9.52;;;384.00;2329.60;;;;;;5074367;28;20032;-79
2021/05/17 05:39:00;;;;;;;11.68;9.32;;;384.00;2329.60;;;;;;5074548;28;20471;-80
2021/05/17 05:41:26;;;;;;;11.18;9.63;;;384.00;2329.60;;;;;;5073195;28;20025;-74
2021/05/17 05:43:52;;;;;;;11.68;9.85;;;384.10;2329.60;;;;;;5074462;28;20025;-78
2021/05/17 05:46:18;;;;;;;10.85;9.40;;;384.30;2329.60;;;;;;5073984;28;20056;-79
2021/05/17 05:48:47;;;;;;;12.80;9.43;;;384.40;2329.60;;;;;;5074264;28;20027;-80
2021/05/17 05:51:18;;;;;;;13.15;9.65;;;384.30;2329.60;;;;;;5074360;28;20483;-80
2021/05/17 05:53:44;;;;;;;10.88;9.70;;;384.30;2329.60;;;;;;5073958;28;20497;-80
2021/05/17 05:56:10;;;;;;;10.90;9.52;;;384.30;2329.60;;;;;;5072948;28;20094;-79
2021/05/17 05:58:37;;;;;;;12.00;9.38;;;384.40;2329.60;;;;;;5073918;28;20032;-73
2021/05/17 06:01:03;;;;;;;12.43;10.40;;;384.40;2329.60;;;;;;5074101;28;20502;-79
2021/05/17 06:03:29;;;;;;;11.63;10.20;;;384.30;2329.60;;;;;;5073702;28;20024;-79
2021/05/17 06:05:54;;;;;;;11.73;10.50;;;384.50;2329.60;;;;;;5074089;28;20024;-79
2021/05/17 06:08:20;;;;;;;11.30;10.05;;;384.40;2329.60;;;;;;5073834;28;20033;-73
2021/05/17 06:10:46;;;;;;;12.75;10.77;;;384.50;2329.60;;;;;;5073854;28;20035;-74
2021/05/17 06:13:12;;;;;;;11.95;9.77;;;384.50;2329.60;;;;;;5073709;28;20132;-77
2021/05/17 06:15:40;;;;;;;11.20;10.05;;;384.50;2329.60;;;;;;5073825;28;20391;-78
2021/05/17 06:18:07;;;;;;;10.77;9.35;;;384.60;2329.60;;;;;;5062258;28;20032;-75
2021/05/17 06:20:33;;;;;;;10.75;9.65;;;384.70;2329.60;;;;;;5073834;28;20502;-78
2021/05/17 06:22:59;;;;;;;11.60;9.73;;;384.70;2329.60;;;;;;5087069;28;20016;-80
2021/05/17 06:25:26;;;;;;;12.50;9.77;;;384.70;2329.60;;;;;;5090628;28;20115;-78
2021/05/17 06:27:52;;;;;;;11.27;10.07;;;384.70;2329.60;;;;;;5086190;28;20020;-78
2021/05/17 06:30:20;;;;;;;10.63;9.02;;;384.50;2329.60;;;;;;5092754;28;20042;-73
2021/05/17 06:32:47;;;;;;;13.10;10.43;;;384.50;2329.60;;;;;;5089490;28;20043;-78
2021/05/17 06:35:16;;;;;;;11.75;10.07;;;384.50;2329.60;;;;;;5084960;28;20485;-79
2021/05/17 06:37:42;;;;;;;11.80;10.00;;;384.40;2329.60;;;;;;5069141;28;20035;-79
2021/05/17 06:40:08;;;;;;;17.27;13.00;;;384.40;2329.60;;;;;;5088306;28;20020;-79
2021/05/17 06:42:34;;;;;;;14.65;11.40;;;384.40;2329.60;;;;;;5090629;28;20016;-70
2021/05/17 06:45:00;;;;;;;15.73;10.98;;;384.50;2329.60;;;;;;5089073;28;20049;-74
2021/05/17 06:47:26;;;;;;;15.05;12.57;;;384.60;2329.60;;;;;;5091800;28;20028;-74
2021/05/17 06:49:52;;;;;;;15.63;12.00;;;384.60;2329.60;;;;;;5085135;28;20496;-69
2021/05/17 06:52:23;;;;;;;12.23;10.93;;;384.40;2329.60;;;;;;5091189;28;20027;-78
2021/05/17 06:54:50;;;;;;;;;;;384.50;2329.60;;;;;;5078829;28;20031;-68
2021/05/17 06:57:28;;;;;;;12.65;10.70;;;384.60;2329.60;;;;;;5073055;28;19927;-70
2021/05/17 06:59:58;;;;;;;15.45;11.43;;;384.70;2329.60;;;;;;5088099;28;20024;-79
2021/05/17 07:02:24;;;;;;;16.02;11.98;;;384.70;2329.60;;;;;;5088581;28;20481;-78
2021/05/17 07:04:51;;;;;;;16.13;11.73;;;384.70;2329.60;;;;;;5090938;28;20032;-73
2021/05/17 07:07:45;;;;;;;12.75;11.00;;;384.70;2329.60;;;;;;5091537;28;20016;-78
2021/05/17 07:12:56;;;;;;;13.52;11.70;;;384.70;2329.60;;;;;;5087485;28;20447;-75
2021/05/17 07:15:21;;;;;;;15.43;12.32;;;384.60;2329.60;;;;;;5090421;28;20095;-73
2021/05/17 07:17:47;;;;;;;16.13;13.77;;;384.70;2329.60;;;;;;5089653;28;20024;-81
2021/05/17 07:20:21;;;;;;;18.65;13.65;;;384.80;2329.60;;;;;;5091924;28;20024;-79
2021/05/17 07:25:31;;;;;;;15.13;12.85;;;384.90;2329.60;;;;;;5089277;28;20031;-78
2021/05/17 07:27:56;;;;;;;17.33;13.50;;;409.60;2355.20;;;;;;5083271;28;20020;-73
2021/05/17 07:30:22;;;;;;;13.43;12.02;;;409.70;2355.20;;;;;;5088397;28;20485;-73
2021/05/17 07:32:48;;;;;;;14.00;12.23;;;409.70;2355.20;;;;;;5087376;28;20043;-74
2021/05/17 07:35:14;;;;;;;16.60;12.90;;;409.80;2355.20;;;;;;5088797;28;20047;-77
2021/05/17 07:37:39;;;;;;;15.85;12.52;;;409.90;2355.20;;;;;;5083274;28;20028;-80
2021/05/17 07:40:06;;;;;;;14.32;12.52;;;410.00;2355.20;;;;;;5082971;28;20028;-80
2021/05/17 07:42:31;;;;;;;15.23;12.68;;;410.00;2355.20;;;;;;5087400;28;20049;-79
2021/05/17 07:44:57;;;;;;;16.08;12.38;;;410.30;2355.20;;;;;;5087399;28;20028;-78
2021/05/17 07:47:23;;;;;;;14.13;11.63;;;410.40;2355.20;;;;;;5086193;28;20047;-77
2021/05/17 07:49:55;;;;;;;15.07;12.48;;;410.50;2355.20;;;;;;5086701;28;20035;-78
2021/05/17 07:52:21;;;;;;;15.93;11.73;;;410.50;2355.20;;;;;;5087314;28;20020;-81
2021/05/17 07:54:47;;;;;;;11.77;10.15;;;410.30;2355.20;;;;;;5077685;28;20096;-79
2021/05/17 07:57:14;;;;;;;14.55;11.00;;;410.40;2355.20;;;;;;5071851;28;20095;-79
2021/05/17 07:59:40;;;;;;;13.70;9.80;;;410.50;2355.20;;;;;;5071923;28;20024;-77
2021/05/17 08:02:05;;;;;;;10.93;8.80;;;435.20;2355.20;;;;;;5076628;28;20070;-74
2021/05/17 08:04:31;;;;;;;11.20;7.85;;;435.20;2355.20;;;;;;5071034;28;20321;-74
2021/05/17 08:06:57;;;;;;;10.13;8.52;;;435.20;2355.20;;;;;;5071857;28;20098;-78
2021/05/17 08:09:23;;;;;;;9.57;7.43;;;435.30;2355.20;;;;;;5071532;28;20047;-69
2021/05/17 08:11:50;;;;;;;13.38;11.50;;;435.20;2355.20;;;;;;5072083;28;20033;-73
2021/05/17 08:14:17;;;;;;;14.02;12.05;;;435.20;2355.20;;;;;;5071718;28;20494;-77
2021/05/17 08:16:43;;;;;;;17.55;14.77;;;435.60;2355.20;;;;;;5079961;28;20502;-77
2021/05/17 08:19:09;;;;;;;14.52;10.45;;;435.60;2355.20;;;;;;5069820;28;20033;-72
2021/05/17 08:21:35;;;;;;;12.52;9.95;;;435.60;2355.20;;;;;;5077119;28;20099;-75
2021/05/17 08:24:01;;;;;;;11.75;8.75;;;435.30;2355.20;;;;;;5088112;28;20036;-77
2021/05/17 08:26:28;;;;;;;9.15;6.25;;;435.30;2355.20;;;;;;5087161;28;20020;-79
2021/05/17 08:28:53;;;;;;;5.82;3.47;;;435.50;2355.20;;;;;;5088516;28;20048;-70
2021/05/17 08:31:21;;;;;;;4.72;2.83;;;435.40;2355.20;;;;;;5084655;28;20067;-75
2021/05/17 08:33:46;;;;;;;6.35;3.10;;;435.20;2355.20;;;;;;5071454;28;20028;-80
2021/05/17 08:36:12;;;;;;;4.70;3.03;;;410.40;2355.20;;;;;;5071070;28;20479;-78
2021/05/17 08:38:38;;;;;;;6.25;3.00;;;435.20;2355.20;;;;;;5071378;28;20112;-71
2021/05/17 08:41:06;;;;;;;5.63;2.78;;;435.30;2355.20;;;;;;5071871;28;20414;-70
2021/05/17 08:43:34;;;;;;;5.30;3.22;;;435.20;2355.20;;;;;;5071246;28;20103;-70
2021/05/17 08:46:00;;;;;;;4.60;2.97;;;435.30;2355.20;;;;;;5071305;28;20044;-71
2021/05/17 08:48:26;;;;;;;5.90;3.60;;;435.30;2355.20;;;;;;5071211;28;20036;-79
2021/05/17 08:50:51;;;;;;;5.03;3.00;;;435.20;2355.20;;;;;;5071163;28;20443;-75
2021/05/17 08:53:17;;;;;;;6.95;3.38;;;410.40;2355.20;;;;;;5071312;28;20047;-72
2021/05/17 08:55:43;;;;;;;6.85;3.20;;;410.50;2355.20;;;;;;5071243;28;20024;-71
2021/05/17 08:58:09;;;;;;;6.13;3.50;;;435.50;2355.20;;;;;;5071210;28;20025;-74
2021/05/17 09:00:35;;;;;;;6.53;3.60;;;435.80;2355.20;;;;;;5071369;28;20009;-74
2021/05/17 09:03:01;;;;;;;8.75;4.40;;;436.00;2355.20;;;;;;5071193;28;20021;-70
2021/05/17 09:05:36;;;;;;;5.55;3.60;;;460.90;2380.80;;;;;;5071195;28;20096;-74
2021/05/17 09:08:03;;;;;;;6.88;3.60;;;461.20;2380.80;;;;;;5071241;28;20013;-69
2021/05/17 09:10:40;;;;;;;7.25;3.70;;;461.20;2380.80;;;;;;5071347;28;20032;-71
2021/05/17 09:13:16;;;;;;;6.25;3.65;;;461.10;2380.80;;;;;;5058345;28;20016;-78
2021/05/17 09:15:45;;;;;;;8.02;4.00;;;461.10;2380.80;;;;;;5073242;28;20066;-75
2021/05/17 09:18:15;;;;;;;6.07;3.58;;;461.30;2380.80;;;;;;5074643;28;20028;-75
2021/05/17 09:20:46;;;;;;;6.38;3.35;;;461.60;2380.80;;;;;;5073598;28;20029;-70
2021/05/17 09:23:16;;;;;;;5.57;2.97;;;461.70;2380.80;;;;;;5064785;28;20020;-73
2021/05/17 09:26:06;;;;;;;5.03;2.70;;;461.50;2380.80;;;;;;5074786;28;20021;-74
2021/05/17 09:28:33;;;;;;;6.13;3.20;;;461.40;2380.80;;;;;;5062661;28;20023;-83
2021/05/17 09:31:06;;;;;;;6.32;3.35;;;461.30;2380.80;;;;;;5083009;28;20085;-74
2021/05/17 09:33:43;;;;;;;6.15;2.80;;;460.80;2380.80;;;;;;5083557;28;20444;-73
2021/05/17 09:36:26;;;;;;;6.03;3.75;;;436.10;2355.20;;;;;;5069112;28;20020;-71
2021/05/17 09:38:55;;;;;;;6.07;3.25;;;436.10;2355.20;;;;;;5082168;28;20150;-78
2021/05/17 09:41:21;;;;;;;5.35;3.70;;;461.10;2380.80;;;;;;5078682;28;20078;-71
2021/05/17 09:43:47;;;;;;;4.95;3.00;;;461.30;2380.80;;;;;;5080816;28;20024;-74
2021/05/17 09:46:13;;;;;;;6.50;3.13;;;461.60;2380.80;;;;;;5079142;28;20469;-75
2021/05/17 09:48:47;;;;;;;4.47;2.67;;;486.50;2380.80;;;;;;5085416;28;20371;-74
2021/05/17 09:51:14;;;;;;;5.60;3.60;;;486.50;2380.80;;;;;;5089680;28;20046;-69
2021/05/17 09:53:46;;;;;;;4.18;2.67;;;486.50;2380.80;;;;;;5079908;28;20035;-76
2021/05/17 09:56:18;;;;;;;4.90;2.92;;;486.90;2380.80;;;;;;5073005;28;20016;-71
2021/05/17 09:59:07;;;;;;;4.50;2.70;;;487.10;2380.80;;;;;;5066679;28;20082;-74
2021/05/17 10:01:32;;;;;;;4.72;3.00;;;487.10;2380.80;;;;;;5073005;28;20023;-79
2021/05/17 10:04:06;;;;;;;5.93;3.20;;;487.10;2380.80;;;;;;5073707;28;20470;-75
2021/05/17 10:06:32;;;;;;;5.88;3.50;;;512.20;2380.80;;;;;;5070256;28;20479;-75
2021/05/17 10:08:59;;;;;;;6.72;3.92;;;512.80;2380.80;;;;;;5072616;28;20033;-81
2021/05/17 10:11:27;;;;;;;5.50;2.97;;;537.90;2406.40;;;;;;5063922;28;20020;-80
2021/05/17 10:13:53;;;;;;;5.03;3.38;;;538.40;2406.40;;;;;;5072265;28;20027;-79
2021/05/17 10:16:20;;;;;;;5.20;3.00;;;563.30;2432.00;;;;;;5069828;28;20028;-71
2021/05/17 10:18:47;;;;;;;5.53;3.13;;;538.10;2406.40;;;;;;5052448;28;20106;-74
2021/05/17 10:21:21;;;;;;;6.93;2.85;;;538.20;2406.40;;;;;;5055592;28;20103;-80
2021/05/17 10:23:47;;;;;;;6.68;2.50;;;538.00;2406.40;;;;;;5071990;28;20048;-75
2021/05/17 10:26:23;;;;;;;8.70;4.00;;;512.90;2380.80;;;;;;5071422;28;20122;-81
2021/05/17 10:28:54;;;;;;;5.45;2.90;;;512.20;2380.80;;;;;;5071521;28;20435;-80
2021/05/17 10:31:22;;;;;;;6.25;3.22;;;487.30;2380.80;;;;;;5071912;28;20029;-76
2021/05/17 10:34:08;;;;;;;11.65;8.32;;;487.10;2380.80;;;;;;5068240;28;20518;-76
2021/05/17 10:36:57;;;;;;;5.82;3.30;;;487.00;2380.80;;;;;;5058620;28;20479;-81
2021/05/17 10:39:31;;;;;;;6.05;2.75;;;487.00;2380.80;;;;;;5072993;28;20025;-79
2021/05/17 10:48:11;;;;;;;6.18;3.40;;;487.20;2380.80;;;;;;5073098;28;20035;-81
2021/05/17 10:50:38;;;;;;;14.48;6.70;;;487.00;2380.80;;;;;;5068703;28;20029;-71
2021/05/17 10:53:05;;;;;;;4.95;3.10;;;487.00;2380.80;;;;;;5072673;28;20045;-76
2021/05/17 10:55:34;;;;;;;9.05;5.10;;;487.20;2380.80;;;;;;5072768;28;20470;-80
2021/05/17 10:58:08;;;;;;;6.53;3.90;;;486.90;2380.80;;;;;;5069492;28;20028;-74
2021/05/17 11:00:37;;;;;;;5.90;3.05;;;486.90;2380.80;;;;;;5056856;28;20415;-75
2021/05/17 11:03:07;;;;;;;7.68;3.88;;;486.90;2380.80;;;;;;5065150;28;20095;-78
2021/05/17 11:05:33;;;;;;;7.35;4.20;;;486.80;2380.80;;;;;;5070254;28;20031;-74
2021/05/17 11:08:03;;;;;;;5.15;3.13;;;486.90;2380.80;;;;;;5069856;28;20432;-77
2021/05/17 11:10:34;;;;;;;7.45;4.15;;;486.80;2380.80;;;;;;5062837;28;20048;-72
2021/05/17 11:13:04;;;;;;;7.43;3.90;;;487.20;2380.80;;;;;;5054387;28;20036;-74
2021/05/17 11:15:49;;;;;;;;;;;512.40;2380.80;;;;;;5056645;28;20032;-73
2021/05/17 11:18:14;;;;;;;9.13;4.05;;;512.80;2380.80;;;;;;5061971;28;19908;-70
2021/05/17 11:20:40;;;;;;;5.32;2.72;;;537.60;2406.40;;;;;;5061399;28;20151;-72
2021/05/17 11:23:09;;;;;;;6.07;3.35;;;537.60;2406.40;;;;;;5055703;28;20067;-72
2021/05/17 11:25:55;;;;;;;3.78;2.75;;;537.80;2406.40;;;;;;5072432;28;20012;-71
2021/05/17 11:28:48;;;;;;;6.43;2.40;;;538.20;2406.40;;;;;;5085936;28;20055;-72
2021/05/17 11:31:25;;;;;;;6.05;2.72;;;538.00;2406.40;;;;;;5085942;28;20390;-71
2021/05/17 11:34:03;;;;;;;6.20;3.70;;;538.50;2406.40;;;;;;5084253;28;20046;-71
2021/05/17 11:36:42;;;;;;;7.38;3.33;;;563.40;2432.00;;;;;;5086184;28;20024;-71
2021/05/17 11:39:33;;;;;;;5.97;2.50;;;538.50;2406.40;;;;;;5089556;28;20043;-70
2021/05/17 11:42:00;;;;;;;5.72;2.85;;;538.20;2406.40;;;;;;5084773;28;20432;-69
2021/05/17 11:44:30;;;;;;;4.20;2.83;;;563.70;2432.00;;;;;;5088171;28;20020;-70
2021/05/17 11:47:04;;;;;;;4.55;2.53;;;563.70;2432.00;;;;;;5084609;28;20328;-76
2021/05/17 11:49:32;;;;;;;3.97;2.30;;;564.00;2432.00;;;;;;5088463;28;20486;-71
2021/05/17 11:52:09;;;;;;;4.25;2.55;;;563.60;2432.00;;;;;;5085954;28;20043;-73
2021/05/17 11:54:39;;;;;;;5.43;2.47;;;563.60;2432.00;;;;;;5087067;28;20028;-70
2021/05/17 11:57:07;;;;;;;6.20;3.20;;;563.80;2432.00;;;;;;5086909;28;20479;-70
2021/05/17 11:59:33;;;;;;;6.00;2.70;;;563.60;2432.00;;;;;;5081729;28;20483;-71
2021/05/17 12:02:11;;;;;;;4.32;2.40;;;564.00;2432.00;;;;;;5071832;28;20048;-72
2021/05/17 12:04:41;;;;;;;4.60;2.40;;;564.00;2432.00;;;;;;5072135;28;20352;-75
2021/05/17 12:07:15;;;;;;;3.50;2.10;;;589.20;2432.00;;;;;;5084841;28;20463;-78
2021/05/17 12:09:45;;;;;;;3.90;2.47;;;589.50;2432.00;;;;;;5081338;28;20037;-77
2021/05/17 12:12:15;;;;;;;;;;;589.70;2432.00;;;;;;5080943;28;20034;-73
2021/05/17 12:15:10;;;;;;;4.97;2.30;;;589.70;2432.00;;;;;;5071777;28;19911;-69
2021/05/17 12:17:37;;;;;;;4.90;2.53;;;589.70;2432.00;;;;;;5067358;28;20128;-72
2021/05/17 12:20:16;;;;;;;4.13;2.40;;;589.60;2432.00;;;;;;5071815;28;20487;-72
2021/05/17 12:22:45;;;;;;;4.63;2.20;;;589.50;2432.00;;;;;;5071900;28;20055;-70
2021/05/17 12:25:19;;;;;;;4.70;2.30;;;589.00;2432.00;;;;;;5078060;28;20501;-70
2021/05/17 12:27:46;;;;;;;5.07;2.28;;;589.10;2432.00;;;;;;5076202;28;20029;-70
2021/05/17 12:30:15;;;;;;;5.25;2.50;;;589.00;2432.00;;;;;;5071750;28;20179;-70
2021/05/17 12:32:46;;;;;;;3.90;2.10;;;589.00;2432.00;;;;;;5071638;28;20175;-72
2021/05/17 12:35:24;;;;;;;4.63;2.30;;;564.10;2432.00;;;;;;5071807;28;20028;-74
2021/05/17 12:37:56;;;;;;;5.55;2.35;;;563.90;2432.00;;;;;;5071584;28;20500;-72
2021/05/17 12:40:31;;;;;;;4.55;2.67;;;563.80;2432.00;;;;;;5071688;28;20028;-76
2021/05/17 12:43:21;;;;;;;4.38;2.38;;;563.70;2432.00;;;;;;5071802;28;20490;-72